createdAt,value
2019-05-19T00:00:44.714Z,16.00
2019-05-19T00:03:13.288Z,16.00
2019-05-19T00:05:41.898Z,16.00
2019-05-19T00:08:10.832Z,16.00
2019-05-19T00:10:39.459Z,16.00
2019-05-19T00:13:08.048Z,16.10
2019-05-19T00:15:36.693Z,16.10
2019-05-19T00:18:05.551Z,16.20
2019-05-19T00:20:34.250Z,16.20
2019-05-19T00:23:03.005Z,16.20
2019-05-19T00:25:32.056Z,16.20
2019-05-19T00:28:00.574Z,16.20
2019-05-19T00:30:29.228Z,16.20
2019-05-19T00:32:57.812Z,16.20
2019-05-19T00:35:26.755Z,16.30
2019-05-19T00:37:55.387Z,16.20
2019-05-19T00:40:23.959Z,16.30
2019-05-19T00:42:52.573Z,16.10
2019-05-19T00:45:21.707Z,16.20
2019-05-19T00:47:50.395Z,16.10
2019-05-19T00:50:19.921Z,16.10
2019-05-19T00:52:48.498Z,16.10
2019-05-19T00:55:17.134Z,16.10
2019-05-19T00:57:46.750Z,16.10
2019-05-19T01:00:16.349Z,16.00
2019-05-19T01:02:44.945Z,15.90
2019-05-19T01:05:13.529Z,15.90
2019-05-19T01:07:42.158Z,15.90
2019-05-19T01:10:11.381Z,15.80
2019-05-19T01:12:40.063Z,15.70
2019-05-19T01:15:09.991Z,15.60
2019-05-19T01:17:38.634Z,15.60
2019-05-19T01:20:07.925Z,15.70
2019-05-19T01:22:36.861Z,15.70
2019-05-19T01:25:08.819Z,15.70
2019-05-19T01:27:37.499Z,15.60
2019-05-19T01:30:10.530Z,15.60
2019-05-19T01:32:39.146Z,15.60
2019-05-19T01:35:08.268Z,15.50
2019-05-19T01:37:36.904Z,15.40
2019-05-19T01:40:08.760Z,15.30
2019-05-19T01:42:37.469Z,15.30
2019-05-19T01:45:09.714Z,15.20
2019-05-19T01:47:38.473Z,15.20
2019-05-19T01:50:17.527Z,15.10
2019-05-19T01:52:39.155Z,15.10
2019-05-19T01:55:07.961Z,15.10
2019-05-19T01:57:36.526Z,15.10
2019-05-19T02:00:07.439Z,15.00
2019-05-19T02:02:36.093Z,15.10
2019-05-19T02:05:06.435Z,15.30
2019-05-19T02:07:35.140Z,15.30
2019-05-19T02:10:06.011Z,15.30
2019-05-19T02:12:34.674Z,15.20
2019-05-19T02:15:04.861Z,15.10
2019-05-19T02:17:33.455Z,15.10
2019-05-19T02:20:02.145Z,15.00
2019-05-19T02:22:30.717Z,15.00
2019-05-19T02:24:59.317Z,15.10
2019-05-19T02:27:27.881Z,15.20
2019-05-19T02:29:56.480Z,15.40
2019-05-19T02:32:25.157Z,15.40
2019-05-19T02:34:53.720Z,15.50
2019-05-19T02:37:22.330Z,15.60
2019-05-19T02:39:51.032Z,15.60
2019-05-19T02:42:20.377Z,15.60
2019-05-19T02:44:50.564Z,15.60
2019-05-19T02:47:21.140Z,15.60
2019-05-19T02:49:52.408Z,15.70
2019-05-19T02:52:22.116Z,15.70
2019-05-19T02:54:51.323Z,15.80
2019-05-19T02:57:20.926Z,15.90
2019-05-19T02:59:49.719Z,15.90
2019-05-19T03:02:18.487Z,16.00
2019-05-19T03:04:47.076Z,16.00
2019-05-19T03:07:15.669Z,15.90
2019-05-19T03:09:44.512Z,15.80
2019-05-19T03:12:13.140Z,15.80
2019-05-19T03:14:42.082Z,15.80
2019-05-19T03:17:10.651Z,15.80
2019-05-19T03:19:39.290Z,15.80
2019-05-19T03:22:07.895Z,15.90
2019-05-19T03:24:36.441Z,15.90
2019-05-19T03:27:05.121Z,15.80
2019-05-19T03:29:35.314Z,15.80
2019-05-19T03:32:12.419Z,15.60
2019-05-19T03:34:38.652Z,15.50
2019-05-19T03:37:07.312Z,15.40
2019-05-19T03:39:35.903Z,15.40
2019-05-19T03:42:04.650Z,15.30
2019-05-19T03:44:33.214Z,15.30
2019-05-19T03:47:01.800Z,15.40
2019-05-19T03:49:30.422Z,15.40
2019-05-19T03:51:59.134Z,15.40
2019-05-19T03:54:28.410Z,15.40
2019-05-19T03:56:57.055Z,15.50
2019-05-19T03:59:25.734Z,15.50
2019-05-19T04:01:55.859Z,15.60
2019-05-19T04:04:24.523Z,15.60
2019-05-19T04:06:53.645Z,15.60
2019-05-19T04:09:22.275Z,15.60
2019-05-19T04:11:50.867Z,15.50
2019-05-19T04:14:19.507Z,15.50
2019-05-19T04:16:49.903Z,15.50
2019-05-19T04:19:18.483Z,15.60
2019-05-19T04:21:49.265Z,15.70
2019-05-19T04:24:17.367Z,15.70
2019-05-19T04:26:45.966Z,15.80
2019-05-19T04:29:16.392Z,15.80
2019-05-19T04:31:45.015Z,15.80
2019-05-19T04:34:13.652Z,15.80
2019-05-19T04:36:42.441Z,15.80
2019-05-19T04:39:10.945Z,15.80
2019-05-19T04:41:40.425Z,15.90
2019-05-19T04:44:09.173Z,15.90
2019-05-19T04:46:37.751Z,15.90
2019-05-19T04:49:06.506Z,15.90
2019-05-19T04:51:35.181Z,16.00
2019-05-19T04:54:03.929Z,16.10
2019-05-19T04:56:32.508Z,16.10
2019-05-19T04:59:01.060Z,16.10
2019-05-19T05:01:29.658Z,16.20
2019-05-19T05:03:58.239Z,16.20
2019-05-19T05:06:26.976Z,16.20
2019-05-19T05:08:55.539Z,16.20
2019-05-19T05:11:24.244Z,16.30
2019-05-19T05:13:52.860Z,16.30
2019-05-19T05:16:21.575Z,16.30
2019-05-19T05:18:50.320Z,16.30
2019-05-19T05:21:18.951Z,16.30
2019-05-19T05:23:47.552Z,16.30
2019-05-19T05:26:16.184Z,16.30
2019-05-19T05:28:44.825Z,16.40
2019-05-19T05:31:15.503Z,16.40
2019-05-19T05:33:43.716Z,16.40
2019-05-19T05:36:12.290Z,16.40
2019-05-19T05:38:40.930Z,16.50
2019-05-19T05:41:09.518Z,16.50
2019-05-19T05:43:38.114Z,16.50
2019-05-19T05:46:06.688Z,16.50
2019-05-19T05:48:35.267Z,16.60
2019-05-19T05:51:04.062Z,16.60
2019-05-19T05:53:32.984Z,16.70
2019-05-19T05:56:01.611Z,16.70
2019-05-19T05:58:30.254Z,16.70
2019-05-19T06:00:58.938Z,16.70
2019-05-19T06:03:27.543Z,16.80
2019-05-19T06:05:56.188Z,16.80
2019-05-19T06:08:24.809Z,16.80
2019-05-19T06:10:53.421Z,16.90
2019-05-19T06:13:21.997Z,16.90
2019-05-19T06:15:50.727Z,17.00
2019-05-19T06:18:19.408Z,17.00
2019-05-19T06:20:48.114Z,17.00
2019-05-19T06:23:16.672Z,17.00
2019-05-19T06:25:45.358Z,17.00
2019-05-19T06:28:13.967Z,17.10
2019-05-19T06:30:43.367Z,17.10
2019-05-19T06:33:12.040Z,17.20
2019-05-19T06:35:40.685Z,17.20
2019-05-19T06:38:09.321Z,17.20
2019-05-19T06:40:37.919Z,17.30
2019-05-19T06:43:06.493Z,17.30
2019-05-19T06:45:35.096Z,17.40
2019-05-19T06:48:03.729Z,17.40
2019-05-19T06:50:32.327Z,17.50
2019-05-19T06:53:13.261Z,17.50
2019-05-19T06:55:31.294Z,17.50
2019-05-19T06:57:59.886Z,17.50
2019-05-19T07:00:28.547Z,17.60
2019-05-19T07:02:57.194Z,17.70
2019-05-19T07:05:25.934Z,17.70
2019-05-19T07:07:54.480Z,17.80
2019-05-19T07:10:23.104Z,17.80
2019-05-19T07:12:51.934Z,17.90
2019-05-19T07:15:20.570Z,17.90
2019-05-19T07:17:49.199Z,18.00
2019-05-19T07:20:18.223Z,18.00
2019-05-19T07:22:46.815Z,18.10
2019-05-19T07:25:15.500Z,18.10
2019-05-19T07:27:44.065Z,18.20
2019-05-19T07:30:13.513Z,18.20
2019-05-19T07:32:42.099Z,18.30
2019-05-19T07:35:11.093Z,18.30
2019-05-19T07:37:39.708Z,18.40
2019-05-19T07:40:08.332Z,18.40
2019-05-19T07:42:36.999Z,18.40
2019-05-19T07:45:06.422Z,18.50
2019-05-19T07:47:34.984Z,18.50
2019-05-19T07:50:04.238Z,18.50
2019-05-19T07:52:32.853Z,18.60
2019-05-19T07:55:01.369Z,18.60
2019-05-19T07:57:29.960Z,18.70
2019-05-19T07:59:58.528Z,18.70
2019-05-19T08:02:27.201Z,18.70
2019-05-19T08:04:55.780Z,18.80
2019-05-19T08:07:24.530Z,18.80
2019-05-19T08:09:53.417Z,18.80
2019-05-19T08:12:22.015Z,18.90
2019-05-19T08:14:50.611Z,19.00
2019-05-19T08:17:19.263Z,19.00
2019-05-19T08:19:47.875Z,19.00
2019-05-19T08:22:16.526Z,19.10
2019-05-19T08:24:45.109Z,19.20
2019-05-19T08:27:13.784Z,19.20
2019-05-19T08:29:42.371Z,19.30
2019-05-19T08:32:10.921Z,19.20
2019-05-19T08:34:39.585Z,19.20
2019-05-19T08:37:08.209Z,19.20
2019-05-19T08:39:36.817Z,19.20
2019-05-19T08:42:05.385Z,19.20
2019-05-19T08:44:33.943Z,19.20
2019-05-19T08:47:02.557Z,19.30
2019-05-19T08:49:31.207Z,19.20
2019-05-19T08:51:59.811Z,19.20
2019-05-19T08:54:28.423Z,19.30
2019-05-19T08:56:56.992Z,19.30
2019-05-19T08:59:25.586Z,19.30
2019-05-19T09:01:54.183Z,19.30
2019-05-19T09:04:22.771Z,19.40
2019-05-19T09:06:51.367Z,19.40
2019-05-19T09:09:19.946Z,19.40
2019-05-19T09:11:48.510Z,19.40
2019-05-19T09:14:17.190Z,19.40
2019-05-19T09:16:45.787Z,19.50
2019-05-19T09:19:15.253Z,19.50
2019-05-19T09:21:43.917Z,19.60
2019-05-19T09:24:12.564Z,19.60
2019-05-19T09:26:41.215Z,19.60
2019-05-19T09:29:09.848Z,19.70
2019-05-19T09:31:47.025Z,19.80
2019-05-19T09:34:15.714Z,19.80
2019-05-19T09:36:56.145Z,19.70
2019-05-19T09:39:24.759Z,19.70
2019-05-19T09:41:53.333Z,19.60
2019-05-19T09:44:21.904Z,19.60
2019-05-19T09:46:50.716Z,19.70
2019-05-19T09:49:36.040Z,19.70
2019-05-19T09:52:06.321Z,19.70
2019-05-19T09:54:44.610Z,19.80
2019-05-19T09:57:05.370Z,19.80
2019-05-19T09:59:34.049Z,19.90
2019-05-19T10:02:02.770Z,19.90
2019-05-19T10:04:31.402Z,20.00
2019-05-19T10:07:00.073Z,20.10
2019-05-19T10:09:41.986Z,20.20
2019-05-19T10:12:10.617Z,20.20
2019-05-19T10:14:39.260Z,20.30
2019-05-19T10:17:07.983Z,20.30
2019-05-19T10:19:36.542Z,20.30
2019-05-19T10:22:05.402Z,20.10
2019-05-19T10:24:33.972Z,20.10
2019-05-19T10:27:02.549Z,20.10
2019-05-19T10:29:31.373Z,20.10
2019-05-19T10:31:59.929Z,20.10
2019-05-19T10:34:28.546Z,20.20
2019-05-19T10:36:57.105Z,20.30
2019-05-19T10:39:25.692Z,20.50
2019-05-19T10:41:54.336Z,20.50
2019-05-19T10:44:22.996Z,20.30
2019-05-19T10:46:51.510Z,20.30
2019-05-19T10:49:20.121Z,20.30
2019-05-19T10:51:48.678Z,20.20
2019-05-19T10:54:17.347Z,20.30
2019-05-19T10:56:45.977Z,20.40
2019-05-19T10:59:14.683Z,20.60
2019-05-19T11:01:43.279Z,20.80
2019-05-19T11:04:11.905Z,21.00
2019-05-19T11:06:40.455Z,21.20
2019-05-19T11:09:09.109Z,21.20
2019-05-19T11:11:37.819Z,21.00
2019-05-19T11:14:06.430Z,21.00
2019-05-19T11:16:35.368Z,21.10
2019-05-19T11:19:04.052Z,21.10
2019-05-19T11:21:32.667Z,21.10
2019-05-19T11:24:01.289Z,21.10
2019-05-19T11:26:29.999Z,21.00
2019-05-19T11:28:58.613Z,20.90
2019-05-19T11:31:27.245Z,20.60
2019-05-19T11:33:55.838Z,20.60
2019-05-19T11:36:24.393Z,20.80
2019-05-19T11:38:52.951Z,20.90
2019-05-19T11:41:21.530Z,21.10
2019-05-19T11:43:50.084Z,21.20
2019-05-19T11:46:18.744Z,21.30
2019-05-19T11:48:47.334Z,21.40
2019-05-19T11:51:20.491Z,21.50
2019-05-19T11:53:49.110Z,21.60
2019-05-19T11:56:17.650Z,21.60
2019-05-19T11:58:46.212Z,21.50
2019-05-19T12:01:14.822Z,21.50
2019-05-19T12:03:43.342Z,21.30
2019-05-19T12:06:11.929Z,21.20
2019-05-19T12:08:40.624Z,21.30
2019-05-19T12:11:09.183Z,21.40
2019-05-19T12:13:37.757Z,21.50
2019-05-19T12:16:06.338Z,21.50
2019-05-19T12:18:34.963Z,21.60
2019-05-19T12:21:03.550Z,21.80
2019-05-19T12:23:32.118Z,21.90
2019-05-19T12:26:00.778Z,21.80
2019-05-19T12:28:29.655Z,21.60
2019-05-19T12:30:58.562Z,21.60
2019-05-19T12:33:27.274Z,21.70
2019-05-19T12:35:55.876Z,21.80
2019-05-19T12:38:24.462Z,22.00
2019-05-19T12:40:53.260Z,21.90
2019-05-19T12:43:21.862Z,22.00
2019-05-19T12:45:50.551Z,22.20
2019-05-19T12:48:19.227Z,22.20
2019-05-19T12:50:47.955Z,22.20
2019-05-19T12:53:16.684Z,22.20
2019-05-19T12:55:45.244Z,22.00
2019-05-19T12:58:13.835Z,22.00
2019-05-19T13:00:42.713Z,22.10
2019-05-19T13:03:11.283Z,22.30
2019-05-19T13:05:39.878Z,22.50
2019-05-19T13:08:11.348Z,22.70
2019-05-19T13:10:39.536Z,22.90
2019-05-19T13:13:08.344Z,23.10
2019-05-19T13:15:36.952Z,23.30
2019-05-19T13:18:05.583Z,23.40
2019-05-19T13:20:34.251Z,23.50
2019-05-19T13:23:03.031Z,23.40
2019-05-19T13:25:31.639Z,23.20
2019-05-19T13:28:00.217Z,23.10
2019-05-19T13:30:28.883Z,23.00
2019-05-19T13:32:57.446Z,23.00
2019-05-19T13:35:26.105Z,23.10
2019-05-19T13:37:54.688Z,23.10
2019-05-19T13:40:23.270Z,22.80
2019-05-19T13:42:51.916Z,22.40
2019-05-19T13:45:20.847Z,22.10
2019-05-19T13:47:49.408Z,22.10
2019-05-19T13:50:18.136Z,22.00
2019-05-19T13:52:46.725Z,22.20
2019-05-19T13:55:15.654Z,22.40
2019-05-19T13:57:44.325Z,22.70
2019-05-19T14:00:13.427Z,23.10
2019-05-19T14:02:42.092Z,23.30
2019-05-19T14:05:10.916Z,23.40
2019-05-19T14:07:39.675Z,23.50
2019-05-19T14:10:08.893Z,23.20
2019-05-19T14:12:37.473Z,23.20
2019-05-19T14:15:07.279Z,23.10
2019-05-19T14:17:35.885Z,22.90
2019-05-19T14:20:07.554Z,22.90
2019-05-19T14:22:36.297Z,23.00
2019-05-19T14:25:09.576Z,23.20
2019-05-19T14:27:38.255Z,23.30
2019-05-19T14:30:07.598Z,23.80
2019-05-19T14:32:36.260Z,24.10
2019-05-19T14:35:06.602Z,24.50
2019-05-19T14:37:35.196Z,25.20
2019-05-19T14:40:04.598Z,25.70
2019-05-19T14:42:51.240Z,25.60
2019-05-19T14:45:20.106Z,25.40
2019-05-19T14:47:48.671Z,25.40
2019-05-19T14:50:17.327Z,25.40
2019-05-19T14:52:45.888Z,24.90
2019-05-19T14:55:14.595Z,24.20
2019-05-19T14:57:45.434Z,23.70
2019-05-19T15:00:14.048Z,23.20
2019-05-19T15:02:42.623Z,22.90
2019-05-19T15:05:11.458Z,22.90
2019-05-19T15:07:40.044Z,23.10
2019-05-19T15:10:10.135Z,23.20
2019-05-19T15:12:39.598Z,23.20
2019-05-19T15:15:11.596Z,23.40
2019-05-19T15:17:40.527Z,23.60
2019-05-19T15:20:10.006Z,24.00
2019-05-19T15:22:38.844Z,24.10
2019-05-19T15:25:08.272Z,24.10
2019-05-19T15:27:37.364Z,24.10
2019-05-19T15:30:13.049Z,23.80
2019-05-19T15:32:37.811Z,23.90
2019-05-19T15:35:08.167Z,24.20
2019-05-19T15:37:36.922Z,24.40
2019-05-19T15:40:07.183Z,24.50
2019-05-19T15:42:35.795Z,24.70
2019-05-19T15:45:07.982Z,24.50
2019-05-19T15:47:38.420Z,24.20
2019-05-19T15:50:08.211Z,24.40
2019-05-19T15:52:36.927Z,24.50
2019-05-19T15:55:06.428Z,24.50
2019-05-19T15:57:35.468Z,24.60
2019-05-19T16:00:06.868Z,24.70
2019-05-19T16:02:35.717Z,24.70
2019-05-19T16:05:06.736Z,24.50
2019-05-19T16:07:35.848Z,24.10
2019-05-19T16:10:06.921Z,23.70
2019-05-19T16:12:35.956Z,23.60
2019-05-19T16:15:06.653Z,24.10
2019-05-19T16:17:36.009Z,24.20
2019-05-19T16:20:07.737Z,24.40
2019-05-19T16:22:36.341Z,24.40
2019-05-19T16:25:08.250Z,24.70
2019-05-19T16:27:37.032Z,25.00
2019-05-19T16:30:07.137Z,25.20
2019-05-19T16:32:35.970Z,25.40
2019-05-19T16:35:06.855Z,25.30
2019-05-19T16:37:35.720Z,24.90
2019-05-19T16:40:05.727Z,24.60
2019-05-19T16:42:34.329Z,24.30
2019-05-19T16:45:02.956Z,24.00
2019-05-19T16:47:31.529Z,24.00
2019-05-19T16:50:00.085Z,23.90
2019-05-19T16:52:29.243Z,24.00
2019-05-19T16:55:15.713Z,24.00
2019-05-19T16:57:44.316Z,23.90
2019-05-19T17:00:13.176Z,23.80
2019-05-19T17:02:41.811Z,23.70
2019-05-19T17:05:10.706Z,23.60
2019-05-19T17:07:39.221Z,23.80
2019-05-19T17:10:09.135Z,24.20
2019-05-19T17:12:37.704Z,24.80
2019-05-19T17:15:07.312Z,25.20
2019-05-19T17:17:35.977Z,25.50
2019-05-19T17:20:07.820Z,26.00
2019-05-19T17:22:36.429Z,26.70
2019-05-19T17:25:06.968Z,27.50
2019-05-19T17:27:35.553Z,28.10
2019-05-19T17:30:06.580Z,28.20
2019-05-19T17:32:35.224Z,27.80
2019-05-19T17:35:05.897Z,26.70
2019-05-19T17:37:34.458Z,25.30
2019-05-19T17:40:03.274Z,24.30
2019-05-19T17:42:31.836Z,23.60
2019-05-19T17:45:00.405Z,23.30
2019-05-19T17:47:29.052Z,23.20
2019-05-19T17:49:57.629Z,23.00
2019-05-19T17:52:26.885Z,22.90
2019-05-19T17:54:55.637Z,22.60
2019-05-19T17:57:24.979Z,22.40
2019-05-19T17:59:53.956Z,22.00
2019-05-19T18:02:22.511Z,21.60
2019-05-19T18:04:51.236Z,21.30
2019-05-19T18:07:19.785Z,21.20
2019-05-19T18:09:48.400Z,21.20
2019-05-19T18:12:17.021Z,21.20
2019-05-19T18:14:46.143Z,21.20
2019-05-19T18:17:14.730Z,21.20
2019-05-19T18:19:43.282Z,21.20
2019-05-19T18:22:11.959Z,21.20
2019-05-19T18:24:40.539Z,21.10
2019-05-19T18:27:09.153Z,21.00
2019-05-19T18:29:37.743Z,21.00
2019-05-19T18:32:07.020Z,21.00
2019-05-19T18:34:35.789Z,21.00
2019-05-19T18:37:04.504Z,20.90
2019-05-19T18:39:33.254Z,20.90
2019-05-19T18:42:01.982Z,21.00
2019-05-19T18:44:30.546Z,21.20
2019-05-19T18:46:59.904Z,21.30
2019-05-19T18:49:29.033Z,21.40
2019-05-19T18:51:57.983Z,21.50
2019-05-19T18:54:26.876Z,21.50
2019-05-19T18:56:55.667Z,21.50
2019-05-19T18:59:24.554Z,21.50
2019-05-19T19:01:53.146Z,21.50
2019-05-19T19:04:21.818Z,21.40
2019-05-19T19:06:50.463Z,21.40
2019-05-19T19:09:19.030Z,21.30
2019-05-19T19:11:47.610Z,21.30
2019-05-19T19:14:16.245Z,21.20
2019-05-19T19:16:44.857Z,21.30
2019-05-19T19:19:13.923Z,21.20
2019-05-19T19:21:42.472Z,21.10
2019-05-19T19:24:11.064Z,20.80
2019-05-19T19:26:39.620Z,20.70
2019-05-19T19:29:08.255Z,20.60
2019-05-19T19:31:48.075Z,20.40
2019-05-19T19:34:07.185Z,20.40
2019-05-19T19:36:35.787Z,20.30
2019-05-19T19:39:05.793Z,20.20
2019-05-19T19:41:35.041Z,20.10
2019-05-19T19:44:04.672Z,20.10
2019-05-19T19:46:33.246Z,20.10
2019-05-19T19:49:01.941Z,20.10
2019-05-19T19:51:33.548Z,20.10
2019-05-19T19:54:15.270Z,20.00
2019-05-19T19:56:43.844Z,19.70
2019-05-19T19:59:12.454Z,19.00
2019-05-19T20:01:43.133Z,18.50
2019-05-19T20:04:11.601Z,18.20
2019-05-19T20:06:40.208Z,18.00
2019-05-19T20:09:09.005Z,17.80
2019-05-19T20:11:37.553Z,17.80
2019-05-19T20:14:06.137Z,17.80
2019-05-19T20:16:34.694Z,17.70
2019-05-19T20:19:03.283Z,17.70
2019-05-19T20:21:39.375Z,17.80
2019-05-19T20:24:08.044Z,17.80
2019-05-19T20:26:36.621Z,17.90
2019-05-19T20:29:05.251Z,18.10
2019-05-19T20:31:33.827Z,18.30
2019-05-19T20:34:02.409Z,18.60
2019-05-19T20:36:31.175Z,18.80
2019-05-19T20:38:59.873Z,19.00
2019-05-19T20:41:28.610Z,19.10
2019-05-19T20:43:57.421Z,19.30
2019-05-19T20:46:25.984Z,19.50
2019-05-19T20:48:54.606Z,19.60
2019-05-19T20:51:23.331Z,19.70
2019-05-19T20:53:53.354Z,19.80
2019-05-19T20:56:22.187Z,19.90
2019-05-19T20:58:50.743Z,20.00
2019-05-19T21:01:19.336Z,20.10
2019-05-19T21:03:48.100Z,20.20
2019-05-19T21:06:16.648Z,20.20
2019-05-19T21:08:45.383Z,20.30
2019-05-19T21:11:13.888Z,20.30
2019-05-19T21:13:42.556Z,20.40
2019-05-19T21:16:11.136Z,20.40
2019-05-19T21:18:40.393Z,20.40
2019-05-19T21:21:10.227Z,20.40
2019-05-19T21:23:39.160Z,20.40
2019-05-19T21:26:07.849Z,20.40
2019-05-19T21:28:36.511Z,20.30
2019-05-19T21:31:06.335Z,20.30
2019-05-19T21:33:35.030Z,20.20
2019-05-19T21:36:03.667Z,20.10
2019-05-19T21:38:32.246Z,20.00
2019-05-19T21:41:00.940Z,19.90
2019-05-19T21:43:31.620Z,19.80
2019-05-19T21:46:00.422Z,19.60
2019-05-19T21:48:33.219Z,19.50
2019-05-19T21:51:02.015Z,19.30
2019-05-19T21:53:30.827Z,18.90
2019-05-19T21:55:59.339Z,18.80
2019-05-19T21:58:27.910Z,18.60
2019-05-19T22:00:56.832Z,18.60
2019-05-19T22:03:25.382Z,18.50
2019-05-19T22:05:53.988Z,18.40
2019-05-19T22:08:22.682Z,18.20
2019-05-19T22:10:51.564Z,18.20
2019-05-19T22:13:20.331Z,18.10
2019-05-19T22:15:49.048Z,18.00
2019-05-19T22:18:17.733Z,17.90
2019-05-19T22:20:48.402Z,17.90
2019-05-19T22:23:16.735Z,17.80
2019-05-19T22:25:45.336Z,17.70
2019-05-19T22:28:13.980Z,17.60
2019-05-19T22:30:42.669Z,17.50
2019-05-19T22:33:11.250Z,17.30
2019-05-19T22:35:40.397Z,17.20
2019-05-19T22:38:09.751Z,17.20
2019-05-19T22:40:38.349Z,17.10
2019-05-19T22:43:07.053Z,17.10
2019-05-19T22:45:35.650Z,17.10
2019-05-19T22:48:04.803Z,17.10
2019-05-19T22:50:33.436Z,17.20
2019-05-19T22:53:02.243Z,17.20
2019-05-19T22:55:30.951Z,17.30
2019-05-19T22:57:59.963Z,17.20
2019-05-19T23:00:29.621Z,17.10
2019-05-19T23:02:58.663Z,17.00
2019-05-19T23:05:29.406Z,16.90
2019-05-19T23:07:58.437Z,16.80
2019-05-19T23:10:27.062Z,16.90
2019-05-19T23:12:56.195Z,17.00
2019-05-19T23:15:25.128Z,17.10
2019-05-19T23:17:54.071Z,17.30
2019-05-19T23:20:23.596Z,17.30
2019-05-19T23:22:54.239Z,17.40
2019-05-19T23:25:22.797Z,17.40
2019-05-19T23:27:51.473Z,17.60
2019-05-19T23:30:20.488Z,17.60
2019-05-19T23:32:49.483Z,17.50
2019-05-19T23:35:18.738Z,17.40
2019-05-19T23:37:47.385Z,17.30
2019-05-19T23:40:16.117Z,17.30
2019-05-19T23:42:44.703Z,17.30
2019-05-19T23:45:13.790Z,17.30
2019-05-19T23:47:42.780Z,17.10
2019-05-19T23:50:12.051Z,17.30
2019-05-19T23:52:40.792Z,17.30
2019-05-19T23:55:10.471Z,17.50
2019-05-19T23:57:39.060Z,17.70
